sensor_id;sensor_type;location;lat;lon;timestamp;P1;durP1;ratioP1;P2;durP2;ratioP2
74044;SDS011;62389;51.412;5.436;2023-08-20T00:01:20;11.73;;;2.80;;
74044;SDS011;62389;51.412;5.436;2023-08-20T00:03:49;6.72;;;2.40;;
74044;SDS011;62389;51.412;5.436;2023-08-20T00:06:15;5.15;;;3.05;;
74044;SDS011;62389;51.412;5.436;2023-08-20T00:08:41;6.55;;;2.47;;
74044;SDS011;62389;51.412;5.436;2023-08-20T00:11:06;8.90;;;3.10;;
74044;SDS011;62389;51.412;5.436;2023-08-20T00:13:33;8.85;;;2.75;;
74044;SDS011;62389;51.412;5.436;2023-08-20T00:15:58;6.55;;;2.55;;
74044;SDS011;62389;51.412;5.436;2023-08-20T00:18:24;7.35;;;2.38;;
74044;SDS011;62389;51.412;5.436;2023-08-20T00:20:50;4.43;;;2.50;;
74044;SDS011;62389;51.412;5.436;2023-08-20T00:23:16;8.25;;;2.80;;
74044;SDS011;62389;51.412;5.436;2023-08-20T00:25:41;8.50;;;3.03;;
74044;SDS011;62389;51.412;5.436;2023-08-20T00:28:08;6.65;;;2.40;;
74044;SDS011;62389;51.412;5.436;2023-08-20T00:30:34;7.78;;;3.05;;
74044;SDS011;62389;51.412;5.436;2023-08-20T00:32:59;8.07;;;2.88;;
74044;SDS011;62389;51.412;5.436;2023-08-20T00:35:25;7.63;;;2.28;;
74044;SDS011;62389;51.412;5.436;2023-08-20T00:37:50;5.55;;;2.70;;
74044;SDS011;62389;51.412;5.436;2023-08-20T00:40:15;8.85;;;2.55;;
74044;SDS011;62389;51.412;5.436;2023-08-20T00:42:41;6.95;;;2.50;;
74044;SDS011;62389;51.412;5.436;2023-08-20T00:45:06;6.70;;;2.65;;
74044;SDS011;62389;51.412;5.436;2023-08-20T00:47:32;7.63;;;2.53;;
74044;SDS011;62389;51.412;5.436;2023-08-20T00:49:57;5.85;;;2.22;;
74044;SDS011;62389;51.412;5.436;2023-08-20T00:52:23;5.57;;;2.42;;
74044;SDS011;62389;51.412;5.436;2023-08-20T00:54:49;6.22;;;2.10;;
74044;SDS011;62389;51.412;5.436;2023-08-20T00:57:15;7.65;;;2.75;;
74044;SDS011;62389;51.412;5.436;2023-08-20T00:59:44;5.65;;;2.20;;
74044;SDS011;62389;51.412;5.436;2023-08-20T01:02:14;6.30;;;2.72;;
74044;SDS011;62389;51.412;5.436;2023-08-20T01:04:40;4.65;;;2.28;;
74044;SDS011;62389;51.412;5.436;2023-08-20T01:07:14;5.28;;;2.10;;
74044;SDS011;62389;51.412;5.436;2023-08-20T01:10:08;5.35;;;2.40;;
74044;SDS011;62389;51.412;5.436;2023-08-20T01:12:36;8.00;;;2.67;;
74044;SDS011;62389;51.412;5.436;2023-08-20T01:15:02;5.55;;;2.42;;
74044;SDS011;62389;51.412;5.436;2023-08-20T01:17:27;7.38;;;2.72;;
74044;SDS011;62389;51.412;5.436;2023-08-20T01:19:52;4.68;;;2.35;;
74044;SDS011;62389;51.412;5.436;2023-08-20T01:30:10;4.13;;;2.33;;
74044;SDS011;62389;51.412;5.436;2023-08-20T01:32:37;7.45;;;2.33;;
74044;SDS011;62389;51.412;5.436;2023-08-20T01:35:07;8.50;;;2.72;;
74044;SDS011;62389;51.412;5.436;2023-08-20T01:37:36;6.55;;;2.88;;
74044;SDS011;62389;51.412;5.436;2023-08-20T01:40:01;5.85;;;2.42;;
74044;SDS011;62389;51.412;5.436;2023-08-20T01:42:28;9.00;;;3.20;;
74044;SDS011;62389;51.412;5.436;2023-08-20T01:44:54;7.95;;;2.83;;
74044;SDS011;62389;51.412;5.436;2023-08-20T01:47:19;9.20;;;2.90;;
74044;SDS011;62389;51.412;5.436;2023-08-20T01:49:44;6.22;;;2.78;;
74044;SDS011;62389;51.412;5.436;2023-08-20T01:52:10;4.07;;;2.55;;
74044;SDS011;62389;51.412;5.436;2023-08-20T01:54:35;8.00;;;3.28;;
74044;SDS011;62389;51.412;5.436;2023-08-20T01:57:01;7.82;;;3.10;;
74044;SDS011;62389;51.412;5.436;2023-08-20T01:59:26;9.18;;;3.33;;
74044;SDS011;62389;51.412;5.436;2023-08-20T02:01:52;6.63;;;3.08;;
74044;SDS011;62389;51.412;5.436;2023-08-20T02:04:17;7.80;;;3.30;;
74044;SDS011;62389;51.412;5.436;2023-08-20T02:06:42;6.15;;;3.17;;
74044;SDS011;62389;51.412;5.436;2023-08-20T02:09:07;7.63;;;3.28;;
74044;SDS011;62389;51.412;5.436;2023-08-20T02:11:33;4.50;;;2.55;;
74044;SDS011;62389;51.412;5.436;2023-08-20T02:14:01;7.40;;;2.90;;
74044;SDS011;62389;51.412;5.436;2023-08-20T02:16:27;7.22;;;3.00;;
74044;SDS011;62389;51.412;5.436;2023-08-20T02:18:52;7.75;;;3.42;;
74044;SDS011;62389;51.412;5.436;2023-08-20T02:21:18;4.88;;;2.80;;
74044;SDS011;62389;51.412;5.436;2023-08-20T02:23:43;10.18;;;3.00;;
74044;SDS011;62389;51.412;5.436;2023-08-20T02:26:09;10.38;;;3.63;;
74044;SDS011;62389;51.412;5.436;2023-08-20T02:28:35;6.05;;;3.28;;
74044;SDS011;62389;51.412;5.436;2023-08-20T02:31:03;8.07;;;3.20;;
74044;SDS011;62389;51.412;5.436;2023-08-20T02:33:29;5.20;;;3.05;;
74044;SDS011;62389;51.412;5.436;2023-08-20T02:35:55;6.45;;;3.17;;
74044;SDS011;62389;51.412;5.436;2023-08-20T02:38:20;10.00;;;3.80;;
74044;SDS011;62389;51.412;5.436;2023-08-20T02:40:45;8.02;;;3.70;;
74044;SDS011;62389;51.412;5.436;2023-08-20T02:43:11;7.50;;;3.10;;
74044;SDS011;62389;51.412;5.436;2023-08-20T02:45:40;6.80;;;3.25;;
74044;SDS011;62389;51.412;5.436;2023-08-20T02:48:07;9.32;;;3.30;;
74044;SDS011;62389;51.412;5.436;2023-08-20T02:50:32;6.57;;;3.28;;
74044;SDS011;62389;51.412;5.436;2023-08-20T02:52:57;5.22;;;3.00;;
74044;SDS011;62389;51.412;5.436;2023-08-20T02:55:23;6.57;;;3.13;;
74044;SDS011;62389;51.412;5.436;2023-08-20T02:57:48;7.95;;;3.55;;
74044;SDS011;62389;51.412;5.436;2023-08-20T03:00:14;5.47;;;3.30;;
74044;SDS011;62389;51.412;5.436;2023-08-20T03:02:39;7.53;;;3.13;;
74044;SDS011;62389;51.412;5.436;2023-08-20T03:05:07;8.70;;;3.45;;
74044;SDS011;62389;51.412;5.436;2023-08-20T03:07:33;5.63;;;2.88;;
74044;SDS011;62389;51.412;5.436;2023-08-20T03:09:59;4.95;;;2.78;;
74044;SDS011;62389;51.412;5.436;2023-08-20T03:12:24;7.57;;;3.08;;
74044;SDS011;62389;51.412;5.436;2023-08-20T03:14:49;6.47;;;3.10;;
74044;SDS011;62389;51.412;5.436;2023-08-20T03:17:15;6.10;;;2.70;;
74044;SDS011;62389;51.412;5.436;2023-08-20T03:19:52;5.22;;;2.83;;
74044;SDS011;62389;51.412;5.436;2023-08-20T03:22:19;7.82;;;3.30;;
74044;SDS011;62389;51.412;5.436;2023-08-20T03:24:44;6.35;;;3.05;;
74044;SDS011;62389;51.412;5.436;2023-08-20T03:27:09;7.63;;;2.92;;
74044;SDS011;62389;51.412;5.436;2023-08-20T03:29:35;7.22;;;3.20;;
74044;SDS011;62389;51.412;5.436;2023-08-20T03:32:00;4.90;;;3.03;;
74044;SDS011;62389;51.412;5.436;2023-08-20T03:34:25;7.00;;;3.28;;
74044;SDS011;62389;51.412;5.436;2023-08-20T03:36:51;6.40;;;3.38;;
74044;SDS011;62389;51.412;5.436;2023-08-20T03:39:16;5.72;;;2.50;;
74044;SDS011;62389;51.412;5.436;2023-08-20T03:41:41;10.95;;;3.22;;
74044;SDS011;62389;51.412;5.436;2023-08-20T03:44:07;6.50;;;2.83;;
74044;SDS011;62389;51.412;5.436;2023-08-20T03:46:32;8.98;;;3.47;;
74044;SDS011;62389;51.412;5.436;2023-08-20T03:48:57;6.70;;;2.80;;
74044;SDS011;62389;51.412;5.436;2023-08-20T03:51:23;6.88;;;3.28;;
74044;SDS011;62389;51.412;5.436;2023-08-20T03:53:48;8.93;;;3.78;;
74044;SDS011;62389;51.412;5.436;2023-08-20T03:56:13;6.97;;;3.20;;
74044;SDS011;62389;51.412;5.436;2023-08-20T03:58:39;5.10;;;2.97;;
74044;SDS011;62389;51.412;5.436;2023-08-20T04:01:04;8.88;;;3.83;;
74044;SDS011;62389;51.412;5.436;2023-08-20T04:03:29;6.10;;;3.53;;
74044;SDS011;62389;51.412;5.436;2023-08-20T04:05:55;6.55;;;3.10;;
74044;SDS011;62389;51.412;5.436;2023-08-20T04:08:20;6.65;;;2.78;;
74044;SDS011;62389;51.412;5.436;2023-08-20T04:10:46;5.53;;;3.35;;
74044;SDS011;62389;51.412;5.436;2023-08-20T04:13:11;5.47;;;3.03;;
74044;SDS011;62389;51.412;5.436;2023-08-20T04:15:38;6.10;;;3.90;;
74044;SDS011;62389;51.412;5.436;2023-08-20T04:18:04;6.32;;;3.78;;
74044;SDS011;62389;51.412;5.436;2023-08-20T04:20:30;5.97;;;2.95;;
74044;SDS011;62389;51.412;5.436;2023-08-20T04:22:55;6.57;;;3.10;;
74044;SDS011;62389;51.412;5.436;2023-08-20T04:25:20;6.55;;;3.60;;
74044;SDS011;62389;51.412;5.436;2023-08-20T04:27:46;5.72;;;2.83;;
74044;SDS011;62389;51.412;5.436;2023-08-20T04:30:11;6.95;;;3.53;;
74044;SDS011;62389;51.412;5.436;2023-08-20T04:32:37;6.57;;;3.20;;
74044;SDS011;62389;51.412;5.436;2023-08-20T04:35:02;8.02;;;3.33;;
74044;SDS011;62389;51.412;5.436;2023-08-20T04:37:28;7.10;;;3.10;;
74044;SDS011;62389;51.412;5.436;2023-08-20T04:39:53;5.70;;;2.78;;
74044;SDS011;62389;51.412;5.436;2023-08-20T04:42:18;7.68;;;3.10;;
74044;SDS011;62389;51.412;5.436;2023-08-20T04:44:44;5.55;;;3.00;;
74044;SDS011;62389;51.412;5.436;2023-08-20T04:47:12;6.40;;;3.30;;
74044;SDS011;62389;51.412;5.436;2023-08-20T04:49:38;10.48;;;3.38;;
74044;SDS011;62389;51.412;5.436;2023-08-20T04:52:03;5.65;;;3.20;;
74044;SDS011;62389;51.412;5.436;2023-08-20T04:54:29;6.93;;;3.20;;
74044;SDS011;62389;51.412;5.436;2023-08-20T04:56:54;5.47;;;3.20;;
74044;SDS011;62389;51.412;5.436;2023-08-20T04:59:20;6.97;;;3.42;;
74044;SDS011;62389;51.412;5.436;2023-08-20T05:01:45;8.38;;;3.20;;
74044;SDS011;62389;51.412;5.436;2023-08-20T05:04:10;8.77;;;3.45;;
74044;SDS011;62389;51.412;5.436;2023-08-20T05:06:36;6.30;;;3.20;;
74044;SDS011;62389;51.412;5.436;2023-08-20T05:09:02;7.50;;;3.40;;
74044;SDS011;62389;51.412;5.436;2023-08-20T05:11:28;6.80;;;3.10;;
74044;SDS011;62389;51.412;5.436;2023-08-20T05:13:56;7.70;;;3.55;;
74044;SDS011;62389;51.412;5.436;2023-08-20T05:16:21;8.48;;;3.65;;
74044;SDS011;62389;51.412;5.436;2023-08-20T05:18:47;5.45;;;3.50;;
74044;SDS011;62389;51.412;5.436;2023-08-20T05:21:12;5.85;;;3.65;;
74044;SDS011;62389;51.412;5.436;2023-08-20T05:23:39;8.50;;;3.85;;
74044;SDS011;62389;51.412;5.436;2023-08-20T05:28:31;6.35;;;3.40;;
74044;SDS011;62389;51.412;5.436;2023-08-20T05:30:56;9.63;;;3.47;;
74044;SDS011;62389;51.412;5.436;2023-08-20T05:33:22;6.75;;;3.60;;
74044;SDS011;62389;51.412;5.436;2023-08-20T05:35:48;7.00;;;3.60;;
74044;SDS011;62389;51.412;5.436;2023-08-20T05:38:13;7.47;;;4.20;;
74044;SDS011;62389;51.412;5.436;2023-08-20T05:40:38;9.40;;;4.07;;
74044;SDS011;62389;51.412;5.436;2023-08-20T05:43:04;5.55;;;4.13;;
74044;SDS011;62389;51.412;5.436;2023-08-20T05:45:29;6.90;;;3.92;;
74044;SDS011;62389;51.412;5.436;2023-08-20T05:47:54;8.50;;;3.75;;
74044;SDS011;62389;51.412;5.436;2023-08-20T05:50:20;8.95;;;4.22;;
74044;SDS011;62389;51.412;5.436;2023-08-20T05:52:46;7.25;;;4.15;;
74044;SDS011;62389;51.412;5.436;2023-08-20T05:55:13;5.97;;;3.53;;
74044;SDS011;62389;51.412;5.436;2023-08-20T05:57:38;8.25;;;4.53;;
74044;SDS011;62389;51.412;5.436;2023-08-20T06:00:04;10.85;;;4.97;;
74044;SDS011;62389;51.412;5.436;2023-08-20T06:02:30;11.15;;;4.63;;
74044;SDS011;62389;51.412;5.436;2023-08-20T06:04:55;7.68;;;4.57;;
74044;SDS011;62389;51.412;5.436;2023-08-20T06:07:20;9.00;;;4.80;;
74044;SDS011;62389;51.412;5.436;2023-08-20T06:09:46;11.18;;;4.78;;
74044;SDS011;62389;51.412;5.436;2023-08-20T06:12:11;9.02;;;4.30;;
74044;SDS011;62389;51.412;5.436;2023-08-20T06:14:37;8.57;;;4.22;;
74044;SDS011;62389;51.412;5.436;2023-08-20T06:17:02;9.10;;;4.43;;
74044;SDS011;62389;51.412;5.436;2023-08-20T06:19:28;7.45;;;4.07;;
74044;SDS011;62389;51.412;5.436;2023-08-20T06:21:54;8.45;;;4.53;;
74044;SDS011;62389;51.412;5.436;2023-08-20T06:24:19;7.72;;;4.28;;
74044;SDS011;62389;51.412;5.436;2023-08-20T06:26:44;7.30;;;3.72;;
74044;SDS011;62389;51.412;5.436;2023-08-20T06:29:10;9.15;;;3.47;;
74044;SDS011;62389;51.412;5.436;2023-08-20T06:31:36;8.50;;;3.70;;
74044;SDS011;62389;51.412;5.436;2023-08-20T06:34:01;9.32;;;3.55;;
74044;SDS011;62389;51.412;5.436;2023-08-20T06:36:27;8.93;;;3.00;;
74044;SDS011;62389;51.412;5.436;2023-08-20T06:38:52;7.25;;;2.70;;
74044;SDS011;62389;51.412;5.436;2023-08-20T06:41:18;6.10;;;3.08;;
74044;SDS011;62389;51.412;5.436;2023-08-20T06:43:43;10.82;;;2.78;;
74044;SDS011;62389;51.412;5.436;2023-08-20T06:46:09;8.52;;;3.15;;
74044;SDS011;62389;51.412;5.436;2023-08-20T06:48:34;9.75;;;3.10;;
74044;SDS011;62389;51.412;5.436;2023-08-20T06:51:07;10.35;;;2.58;;
74044;SDS011;62389;51.412;5.436;2023-08-20T06:53:40;11.60;;;3.13;;
74044;SDS011;62389;51.412;5.436;2023-08-20T06:56:06;5.70;;;2.53;;
74044;SDS011;62389;51.412;5.436;2023-08-20T06:58:35;9.45;;;2.97;;
74044;SDS011;62389;51.412;5.436;2023-08-20T07:01:01;8.02;;;2.72;;
74044;SDS011;62389;51.412;5.436;2023-08-20T07:03:41;8.20;;;2.50;;
74044;SDS011;62389;51.412;5.436;2023-08-20T07:06:08;7.40;;;2.40;;
74044;SDS011;62389;51.412;5.436;2023-08-20T07:08:35;9.05;;;2.65;;
74044;SDS011;62389;51.412;5.436;2023-08-20T07:11:01;6.10;;;2.30;;
74044;SDS011;62389;51.412;5.436;2023-08-20T07:13:27;5.82;;;2.10;;
74044;SDS011;62389;51.412;5.436;2023-08-20T07:15:52;5.60;;;2.20;;
74044;SDS011;62389;51.412;5.436;2023-08-20T07:18:17;10.88;;;2.13;;
74044;SDS011;62389;51.412;5.436;2023-08-20T07:20:43;5.95;;;2.17;;
74044;SDS011;62389;51.412;5.436;2023-08-20T07:23:09;7.03;;;2.00;;
74044;SDS011;62389;51.412;5.436;2023-08-20T07:25:38;5.97;;;2.00;;
74044;SDS011;62389;51.412;5.436;2023-08-20T07:28:04;9.68;;;2.67;;
74044;SDS011;62389;51.412;5.436;2023-08-20T07:30:30;7.68;;;2.30;;
74044;SDS011;62389;51.412;5.436;2023-08-20T07:32:56;7.35;;;2.72;;
74044;SDS011;62389;51.412;5.436;2023-08-20T07:35:21;7.88;;;2.83;;
74044;SDS011;62389;51.412;5.436;2023-08-20T07:37:47;5.82;;;2.53;;
74044;SDS011;62389;51.412;5.436;2023-08-20T07:40:12;5.93;;;2.60;;
74044;SDS011;62389;51.412;5.436;2023-08-20T07:42:39;7.13;;;2.60;;
74044;SDS011;62389;51.412;5.436;2023-08-20T07:45:05;5.07;;;2.13;;
74044;SDS011;62389;51.412;5.436;2023-08-20T07:49:57;9.65;;;2.50;;
74044;SDS011;62389;51.412;5.436;2023-08-20T07:52:22;6.50;;;2.50;;
74044;SDS011;62389;51.412;5.436;2023-08-20T07:54:48;9.07;;;3.15;;
74044;SDS011;62389;51.412;5.436;2023-08-20T07:57:13;7.97;;;3.08;;
74044;SDS011;62389;51.412;5.436;2023-08-20T07:59:39;6.95;;;2.65;;
74044;SDS011;62389;51.412;5.436;2023-08-20T08:02:04;7.03;;;2.53;;
74044;SDS011;62389;51.412;5.436;2023-08-20T08:04:30;7.57;;;2.88;;
74044;SDS011;62389;51.412;5.436;2023-08-20T08:06:55;8.35;;;2.70;;
74044;SDS011;62389;51.412;5.436;2023-08-20T08:09:26;10.30;;;3.15;;
74044;SDS011;62389;51.412;5.436;2023-08-20T08:11:53;7.75;;;2.83;;
74044;SDS011;62389;51.412;5.436;2023-08-20T08:14:18;7.38;;;2.38;;
74044;SDS011;62389;51.412;5.436;2023-08-20T08:16:44;6.20;;;2.38;;
74044;SDS011;62389;51.412;5.436;2023-08-20T08:21:36;7.78;;;2.70;;
74044;SDS011;62389;51.412;5.436;2023-08-20T08:24:01;7.43;;;2.55;;
74044;SDS011;62389;51.412;5.436;2023-08-20T08:26:27;5.53;;;2.13;;
74044;SDS011;62389;51.412;5.436;2023-08-20T08:28:53;7.05;;;2.88;;
74044;SDS011;62389;51.412;5.436;2023-08-20T08:31:18;9.88;;;3.00;;
74044;SDS011;62389;51.412;5.436;2023-08-20T08:33:44;7.80;;;2.95;;
74044;SDS011;62389;51.412;5.436;2023-08-20T08:36:09;7.80;;;3.00;;
74044;SDS011;62389;51.412;5.436;2023-08-20T08:41:01;9.13;;;3.17;;
74044;SDS011;62389;51.412;5.436;2023-08-20T08:43:34;9.90;;;3.58;;
74044;SDS011;62389;51.412;5.436;2023-08-20T08:46:00;7.80;;;3.13;;
74044;SDS011;62389;51.412;5.436;2023-08-20T08:48:29;13.55;;;4.25;;
74044;SDS011;62389;51.412;5.436;2023-08-20T08:50:55;10.90;;;3.45;;
74044;SDS011;62389;51.412;5.436;2023-08-20T08:53:21;9.18;;;3.60;;
74044;SDS011;62389;51.412;5.436;2023-08-20T08:55:49;9.27;;;3.50;;
74044;SDS011;62389;51.412;5.436;2023-08-20T08:58:15;6.45;;;2.85;;
74044;SDS011;62389;51.412;5.436;2023-08-20T09:00:40;9.57;;;3.40;;
74044;SDS011;62389;51.412;5.436;2023-08-20T09:03:06;5.88;;;3.13;;
74044;SDS011;62389;51.412;5.436;2023-08-20T09:05:31;7.50;;;2.97;;
74044;SDS011;62389;51.412;5.436;2023-08-20T09:07:56;6.97;;;3.17;;
74044;SDS011;62389;51.412;5.436;2023-08-20T09:10:25;7.40;;;2.72;;
74044;SDS011;62389;51.412;5.436;2023-08-20T09:12:51;5.80;;;2.70;;
74044;SDS011;62389;51.412;5.436;2023-08-20T09:15:21;8.32;;;3.05;;
74044;SDS011;62389;51.412;5.436;2023-08-20T09:17:54;5.97;;;2.38;;
74044;SDS011;62389;51.412;5.436;2023-08-20T09:20:33;6.65;;;2.60;;
74044;SDS011;62389;51.412;5.436;2023-08-20T09:22:59;6.05;;;2.53;;
74044;SDS011;62389;51.412;5.436;2023-08-20T09:25:24;5.03;;;1.80;;
74044;SDS011;62389;51.412;5.436;2023-08-20T09:27:49;6.70;;;1.80;;
74044;SDS011;62389;51.412;5.436;2023-08-20T09:30:17;2.75;;;1.58;;
74044;SDS011;62389;51.412;5.436;2023-08-20T09:32:45;3.92;;;1.30;;
74044;SDS011;62389;51.412;5.436;2023-08-20T09:35:27;3.88;;;1.80;;
74044;SDS011;62389;51.412;5.436;2023-08-20T09:37:52;2.75;;;1.52;;
74044;SDS011;62389;51.412;5.436;2023-08-20T09:40:23;4.57;;;1.70;;
74044;SDS011;62389;51.412;5.436;2023-08-20T09:42:49;3.53;;;1.50;;
74044;SDS011;62389;51.412;5.436;2023-08-20T09:45:16;3.58;;;1.73;;
74044;SDS011;62389;51.412;5.436;2023-08-20T09:47:42;4.45;;;1.67;;
74044;SDS011;62389;51.412;5.436;2023-08-20T09:50:13;3.17;;;1.02;;
74044;SDS011;62389;51.412;5.436;2023-08-20T09:52:44;2.38;;;1.10;;
74044;SDS011;62389;51.412;5.436;2023-08-20T09:55:16;2.53;;;0.80;;
74044;SDS011;62389;51.412;5.436;2023-08-20T09:57:47;1.55;;;0.70;;
74044;SDS011;62389;51.412;5.436;2023-08-20T10:00:13;1.98;;;1.00;;
74044;SDS011;62389;51.412;5.436;2023-08-20T10:02:40;2.65;;;0.75;;
74044;SDS011;62389;51.412;5.436;2023-08-20T10:05:07;2.45;;;1.00;;
74044;SDS011;62389;51.412;5.436;2023-08-20T10:07:36;2.00;;;0.80;;
74044;SDS011;62389;51.412;5.436;2023-08-20T10:10:08;1.85;;;0.60;;
74044;SDS011;62389;51.412;5.436;2023-08-20T10:12:36;1.90;;;0.80;;
74044;SDS011;62389;51.412;5.436;2023-08-20T10:15:04;3.53;;;0.77;;
74044;SDS011;62389;51.412;5.436;2023-08-20T10:17:33;3.22;;;0.80;;
74044;SDS011;62389;51.412;5.436;2023-08-20T10:19:59;2.40;;;0.75;;
74044;SDS011;62389;51.412;5.436;2023-08-20T10:22:35;1.30;;;0.60;;
74044;SDS011;62389;51.412;5.436;2023-08-20T10:25:05;2.85;;;1.13;;
74044;SDS011;62389;51.412;5.436;2023-08-20T10:27:35;1.58;;;0.60;;
74044;SDS011;62389;51.412;5.436;2023-08-20T10:30:09;1.85;;;0.57;;
74044;SDS011;62389;51.412;5.436;2023-08-20T10:35:08;2.15;;;0.68;;
74044;SDS011;62389;51.412;5.436;2023-08-20T10:37:34;3.05;;;0.70;;
74044;SDS011;62389;51.412;5.436;2023-08-20T10:39:59;2.85;;;0.80;;
74044;SDS011;62389;51.412;5.436;2023-08-20T10:42:28;2.75;;;1.00;;
74044;SDS011;62389;51.412;5.436;2023-08-20T10:47:35;2.55;;;0.93;;
74044;SDS011;62389;51.412;5.436;2023-08-20T10:50:11;1.67;;;0.80;;
74044;SDS011;62389;51.412;5.436;2023-08-20T10:52:50;2.00;;;0.80;;
74044;SDS011;62389;51.412;5.436;2023-08-20T10:55:22;2.70;;;0.85;;
74044;SDS011;62389;51.412;5.436;2023-08-20T10:57:54;2.50;;;0.73;;
74044;SDS011;62389;51.412;5.436;2023-08-20T11:00:21;2.58;;;0.90;;
74044;SDS011;62389;51.412;5.436;2023-08-20T11:02:46;2.88;;;0.90;;
74044;SDS011;62389;51.412;5.436;2023-08-20T11:05:16;4.38;;;0.75;;
74044;SDS011;62389;51.412;5.436;2023-08-20T11:07:44;3.47;;;1.00;;
74044;SDS011;62389;51.412;5.436;2023-08-20T11:10:12;2.35;;;0.88;;
74044;SDS011;62389;51.412;5.436;2023-08-20T11:12:39;2.85;;;1.00;;
74044;SDS011;62389;51.412;5.436;2023-08-20T11:15:05;2.60;;;0.90;;
74044;SDS011;62389;51.412;5.436;2023-08-20T11:17:31;2.55;;;0.70;;
74044;SDS011;62389;51.412;5.436;2023-08-20T11:19:56;3.55;;;0.95;;
74044;SDS011;62389;51.412;5.436;2023-08-20T11:22:22;1.48;;;0.70;;
74044;SDS011;62389;51.412;5.436;2023-08-20T11:24:47;3.45;;;0.63;;
74044;SDS011;62389;51.412;5.436;2023-08-20T11:27:12;2.65;;;0.80;;
74044;SDS011;62389;51.412;5.436;2023-08-20T11:29:41;2.03;;;0.80;;
74044;SDS011;62389;51.412;5.436;2023-08-20T11:32:08;2.15;;;1.00;;
74044;SDS011;62389;51.412;5.436;2023-08-20T11:36:59;4.10;;;0.95;;
74044;SDS011;62389;51.412;5.436;2023-08-20T11:39:25;2.50;;;0.70;;
74044;SDS011;62389;51.412;5.436;2023-08-20T11:41:50;2.58;;;1.08;;
74044;SDS011;62389;51.412;5.436;2023-08-20T11:44:20;4.03;;;0.80;;
74044;SDS011;62389;51.412;5.436;2023-08-20T11:46:48;2.92;;;0.80;;
74044;SDS011;62389;51.412;5.436;2023-08-20T11:49:14;3.00;;;0.70;;
74044;SDS011;62389;51.412;5.436;2023-08-20T11:51:41;3.10;;;0.85;;
74044;SDS011;62389;51.412;5.436;2023-08-20T11:54:13;4.13;;;0.80;;
74044;SDS011;62389;51.412;5.436;2023-08-20T11:56:49;2.03;;;0.70;;
74044;SDS011;62389;51.412;5.436;2023-08-20T11:59:17;2.67;;;0.85;;
74044;SDS011;62389;51.412;5.436;2023-08-20T12:01:49;3.80;;;1.10;;
74044;SDS011;62389;51.412;5.436;2023-08-20T12:04:15;2.38;;;1.02;;
74044;SDS011;62389;51.412;5.436;2023-08-20T12:06:41;3.33;;;1.00;;
74044;SDS011;62389;51.412;5.436;2023-08-20T12:09:20;3.72;;;0.70;;
74044;SDS011;62389;51.412;5.436;2023-08-20T12:11:50;3.00;;;0.60;;
74044;SDS011;62389;51.412;5.436;2023-08-20T12:14:20;2.80;;;0.77;;
74044;SDS011;62389;51.412;5.436;2023-08-20T12:16:45;2.88;;;0.75;;
74044;SDS011;62389;51.412;5.436;2023-08-20T12:19:11;1.50;;;0.65;;
74044;SDS011;62389;51.412;5.436;2023-08-20T12:21:37;2.25;;;1.00;;
74044;SDS011;62389;51.412;5.436;2023-08-20T12:24:03;3.40;;;1.13;;
74044;SDS011;62389;51.412;5.436;2023-08-20T12:26:29;2.97;;;1.10;;
74044;SDS011;62389;51.412;5.436;2023-08-20T12:28:55;3.00;;;1.10;;
74044;SDS011;62389;51.412;5.436;2023-08-20T12:31:20;3.00;;;0.90;;
74044;SDS011;62389;51.412;5.436;2023-08-20T12:33:45;3.55;;;0.95;;
74044;SDS011;62389;51.412;5.436;2023-08-20T12:36:11;3.08;;;1.08;;
74044;SDS011;62389;51.412;5.436;2023-08-20T12:38:36;3.35;;;0.80;;
74044;SDS011;62389;51.412;5.436;2023-08-20T12:41:02;4.97;;;1.33;;
74044;SDS011;62389;51.412;5.436;2023-08-20T12:43:29;2.45;;;0.98;;
74044;SDS011;62389;51.412;5.436;2023-08-20T12:45:54;2.03;;;0.80;;
74044;SDS011;62389;51.412;5.436;2023-08-20T12:48:20;1.77;;;0.82;;
74044;SDS011;62389;51.412;5.436;2023-08-20T12:50:45;2.83;;;0.70;;
74044;SDS011;62389;51.412;5.436;2023-08-20T12:53:11;2.80;;;1.13;;
74044;SDS011;62389;51.412;5.436;2023-08-20T12:55:37;3.08;;;0.70;;
74044;SDS011;62389;51.412;5.436;2023-08-20T12:58:03;3.40;;;0.85;;
74044;SDS011;62389;51.412;5.436;2023-08-20T13:00:29;2.90;;;1.00;;
74044;SDS011;62389;51.412;5.436;2023-08-20T13:02:54;3.00;;;0.90;;
74044;SDS011;62389;51.412;5.436;2023-08-20T13:05:21;3.78;;;0.88;;
74044;SDS011;62389;51.412;5.436;2023-08-20T13:07:48;4.25;;;0.90;;
74044;SDS011;62389;51.412;5.436;2023-08-20T13:10:14;4.75;;;1.40;;
74044;SDS011;62389;51.412;5.436;2023-08-20T13:12:41;1.60;;;0.70;;
74044;SDS011;62389;51.412;5.436;2023-08-20T13:15:07;3.45;;;1.00;;
74044;SDS011;62389;51.412;5.436;2023-08-20T13:17:35;2.17;;;1.02;;
74044;SDS011;62389;51.412;5.436;2023-08-20T13:20:02;1.45;;;0.70;;
74044;SDS011;62389;51.412;5.436;2023-08-20T13:22:28;2.22;;;0.90;;
74044;SDS011;62389;51.412;5.436;2023-08-20T13:24:53;2.63;;;0.90;;
74044;SDS011;62389;51.412;5.436;2023-08-20T13:27:18;2.78;;;0.90;;
74044;SDS011;62389;51.412;5.436;2023-08-20T13:29:44;2.47;;;0.80;;
74044;SDS011;62389;51.412;5.436;2023-08-20T13:32:09;2.25;;;0.95;;
74044;SDS011;62389;51.412;5.436;2023-08-20T13:34:35;3.85;;;1.08;;
74044;SDS011;62389;51.412;5.436;2023-08-20T13:37:00;2.65;;;0.90;;
74044;SDS011;62389;51.412;5.436;2023-08-20T13:39:25;3.75;;;1.48;;
74044;SDS011;62389;51.412;5.436;2023-08-20T13:41:51;2.72;;;1.15;;
74044;SDS011;62389;51.412;5.436;2023-08-20T13:44:16;4.68;;;1.02;;
74044;SDS011;62389;51.412;5.436;2023-08-20T13:46:42;2.53;;;0.90;;
74044;SDS011;62389;51.412;5.436;2023-08-20T13:49:07;4.75;;;0.98;;
74044;SDS011;62389;51.412;5.436;2023-08-20T13:51:32;4.38;;;1.20;;
74044;SDS011;62389;51.412;5.436;2023-08-20T13:53:58;2.40;;;0.95;;
74044;SDS011;62389;51.412;5.436;2023-08-20T13:56:23;2.72;;;0.90;;
74044;SDS011;62389;51.412;5.436;2023-08-20T13:58:50;2.17;;;0.88;;
74044;SDS011;62389;51.412;5.436;2023-08-20T14:01:16;2.45;;;0.98;;
74044;SDS011;62389;51.412;5.436;2023-08-20T14:03:41;2.33;;;1.00;;
74044;SDS011;62389;51.412;5.436;2023-08-20T14:06:07;3.90;;;1.13;;
74044;SDS011;62389;51.412;5.436;2023-08-20T14:08:32;2.25;;;1.00;;
74044;SDS011;62389;51.412;5.436;2023-08-20T14:10:57;3.22;;;0.82;;
74044;SDS011;62389;51.412;5.436;2023-08-20T14:13:23;3.05;;;1.02;;
74044;SDS011;62389;51.412;5.436;2023-08-20T14:15:49;3.30;;;0.93;;
74044;SDS011;62389;51.412;5.436;2023-08-20T14:18:14;2.45;;;1.08;;
74044;SDS011;62389;51.412;5.436;2023-08-20T14:20:40;2.90;;;1.10;;
74044;SDS011;62389;51.412;5.436;2023-08-20T14:23:05;3.83;;;1.20;;
74044;SDS011;62389;51.412;5.436;2023-08-20T14:25:31;5.18;;;2.70;;
74044;SDS011;62389;51.412;5.436;2023-08-20T14:27:56;4.00;;;2.20;;
74044;SDS011;62389;51.412;5.436;2023-08-20T14:30:21;6.15;;;2.95;;
74044;SDS011;62389;51.412;5.436;2023-08-20T14:32:47;3.03;;;1.15;;
74044;SDS011;62389;51.412;5.436;2023-08-20T14:35:12;3.55;;;1.30;;
74044;SDS011;62389;51.412;5.436;2023-08-20T14:37:38;4.20;;;1.00;;
74044;SDS011;62389;51.412;5.436;2023-08-20T14:40:03;2.47;;;1.00;;
74044;SDS011;62389;51.412;5.436;2023-08-20T14:42:31;2.95;;;1.00;;
74044;SDS011;62389;51.412;5.436;2023-08-20T14:44:57;5.75;;;1.10;;
74044;SDS011;62389;51.412;5.436;2023-08-20T14:47:22;5.13;;;1.58;;
74044;SDS011;62389;51.412;5.436;2023-08-20T14:49:48;5.72;;;1.60;;
74044;SDS011;62389;51.412;5.436;2023-08-20T14:52:13;5.63;;;2.10;;
74044;SDS011;62389;51.412;5.436;2023-08-20T14:54:38;4.20;;;2.17;;
74044;SDS011;62389;51.412;5.436;2023-08-20T14:57:06;3.10;;;1.95;;
74044;SDS011;62389;51.412;5.436;2023-08-20T14:59:32;3.38;;;0.95;;
74044;SDS011;62389;51.412;5.436;2023-08-20T15:01:58;2.15;;;0.75;;
74044;SDS011;62389;51.412;5.436;2023-08-20T15:04:23;5.18;;;1.15;;
74044;SDS011;62389;51.412;5.436;2023-08-20T15:06:48;1.90;;;0.95;;
74044;SDS011;62389;51.412;5.436;2023-08-20T15:09:14;3.70;;;1.00;;